sensor_id;sensor_type;location;lat;lon;timestamp;pressure;altitude;pressure_sealevel;temperature;humidity
62995;BME280;49086;52.300;4.850;2022-07-29T00:00:34;53218.81;;;-146.41;58.12
62995;BME280;49086;52.300;4.850;2022-07-29T00:02:59;53254.69;;;-146.41;57.62
62995;BME280;49086;52.300;4.850;2022-07-29T00:05:25;53268.63;;;-146.41;58.22
62995;BME280;49086;52.300;4.850;2022-07-29T00:07:50;53202.88;;;-146.41;58.81
62995;BME280;49086;52.300;4.850;2022-07-29T00:10:15;53248.72;;;-146.41;58.10
62995;BME280;49086;52.300;4.850;2022-07-29T00:12:41;53198.88;;;-146.41;59.00
62995;BME280;49086;52.300;4.850;2022-07-29T00:15:07;53250.69;;;-146.41;58.90
62995;BME280;49086;52.300;4.850;2022-07-29T00:17:32;53244.72;;;-146.41;58.72
62995;BME280;49086;52.300;4.850;2022-07-29T00:19:59;53248.72;;;-146.41;58.93
62995;BME280;49086;52.300;4.850;2022-07-29T00:22:24;53228.78;;;-146.41;59.08
62995;BME280;49086;52.300;4.850;2022-07-29T00:24:50;53250.69;;;-146.41;58.72
62995;BME280;49086;52.300;4.850;2022-07-29T00:27:16;53244.72;;;-146.41;58.48
62995;BME280;49086;52.300;4.850;2022-07-29T00:29:41;53240.75;;;-146.41;58.45
62995;BME280;49086;52.300;4.850;2022-07-29T00:32:06;53266.66;;;-146.41;59.53
62995;BME280;49086;52.300;4.850;2022-07-29T00:34:32;53220.81;;;-146.41;58.48
62995;BME280;49086;52.300;4.850;2022-07-29T00:37:16;53226.78;;;-146.41;58.36
62995;BME280;49086;52.300;4.850;2022-07-29T00:39:42;53252.69;;;-146.41;59.06
62995;BME280;49086;52.300;4.850;2022-07-29T00:42:07;53256.69;;;-146.41;58.94
62995;BME280;49086;52.300;4.850;2022-07-29T00:44:40;53244.72;;;-146.41;58.63
62995;BME280;49086;52.300;4.850;2022-07-29T00:47:07;53226.78;;;-146.41;58.55
62995;BME280;49086;52.300;4.850;2022-07-29T00:49:33;53222.78;;;-146.41;59.12
62995;BME280;49086;52.300;4.850;2022-07-29T00:52:01;53240.75;;;-146.41;58.50
62995;BME280;49086;52.300;4.850;2022-07-29T00:54:28;53238.75;;;-146.41;58.97
62995;BME280;49086;52.300;4.850;2022-07-29T00:56:56;53242.72;;;-146.41;58.30
62995;BME280;49086;52.300;4.850;2022-07-29T00:59:22;53266.66;;;-146.41;59.20
62995;BME280;49086;52.300;4.850;2022-07-29T01:01:48;53226.78;;;-146.41;58.34
62995;BME280;49086;52.300;4.850;2022-07-29T01:04:13;53246.72;;;-146.41;58.57
62995;BME280;49086;52.300;4.850;2022-07-29T01:06:39;53222.78;;;-146.41;58.41
62995;BME280;49086;52.300;4.850;2022-07-29T01:09:05;53240.75;;;-146.41;58.96
62995;BME280;49086;52.300;4.850;2022-07-29T01:11:32;53270.63;;;-146.41;59.05
62995;BME280;49086;52.300;4.850;2022-07-29T01:13:59;53226.78;;;-146.41;59.23
62995;BME280;49086;52.300;4.850;2022-07-29T01:16:30;53244.72;;;-146.41;58.97
62995;BME280;49086;52.300;4.850;2022-07-29T01:19:03;53250.69;;;-146.41;59.13
62995;BME280;49086;52.300;4.850;2022-07-29T01:21:44;53256.69;;;-146.41;59.16
62995;BME280;49086;52.300;4.850;2022-07-29T01:24:46;53282.59;;;-146.41;60.49
62995;BME280;49086;52.300;4.850;2022-07-29T01:27:40;53286.59;;;-146.41;60.42
62995;BME280;49086;52.300;4.850;2022-07-29T01:30:11;53230.78;;;-146.41;60.63
62995;BME280;49086;52.300;4.850;2022-07-29T01:32:42;53266.66;;;-146.41;60.65
62995;BME280;49086;52.300;4.850;2022-07-29T01:35:40;53254.69;;;-146.41;61.05
62995;BME280;49086;52.300;4.850;2022-07-29T01:38:20;53200.88;;;-146.41;61.11
62995;BME280;49086;52.300;4.850;2022-07-29T01:40:52;53274.63;;;-146.41;61.57
62995;BME280;49086;52.300;4.850;2022-07-29T01:43:36;53260.66;;;-146.41;61.55
62995;BME280;49086;52.300;4.850;2022-07-29T01:46:20;53248.72;;;-146.41;61.83
62995;BME280;49086;52.300;4.850;2022-07-29T01:48:50;53234.75;;;-146.41;62.38
62995;BME280;49086;52.300;4.850;2022-07-29T01:51:38;53242.72;;;-146.41;62.22
62995;BME280;49086;52.300;4.850;2022-07-29T01:54:16;53282.59;;;-146.41;62.33
62995;BME280;49086;52.300;4.850;2022-07-29T01:56:47;53248.72;;;-146.41;62.66
62995;BME280;49086;52.300;4.850;2022-07-29T01:59:16;53272.63;;;-146.41;63.04
62995;BME280;49086;52.300;4.850;2022-07-29T02:01:44;53294.56;;;-146.41;63.13
62995;BME280;49086;52.300;4.850;2022-07-29T02:04:15;53266.66;;;-146.41;63.45
62995;BME280;49086;52.300;4.850;2022-07-29T02:06:44;53246.72;;;-146.41;63.72
62995;BME280;49086;52.300;4.850;2022-07-29T02:09:14;53240.75;;;-146.41;64.06
62995;BME280;49086;52.300;4.850;2022-07-29T02:11:54;53236.75;;;-146.41;64.28
62995;BME280;49086;52.300;4.850;2022-07-29T02:14:22;53278.59;;;-146.41;64.79
62995;BME280;49086;52.300;4.850;2022-07-29T02:16:52;53254.69;;;-146.41;65.17
62995;BME280;49086;52.300;4.850;2022-07-29T02:19:21;53228.78;;;-146.41;65.38
62995;BME280;49086;52.300;4.850;2022-07-29T02:21:50;53300.53;;;-146.41;65.50
62995;BME280;49086;52.300;4.850;2022-07-29T02:24:18;53214.81;;;-146.41;65.94
62995;BME280;49086;52.300;4.850;2022-07-29T02:26:44;53254.69;;;-146.41;66.22
62995;BME280;49086;52.300;4.850;2022-07-29T02:29:13;53258.69;;;-146.41;66.45
62995;BME280;49086;52.300;4.850;2022-07-29T02:31:42;53244.72;;;-146.41;66.67
62995;BME280;49086;52.300;4.850;2022-07-29T02:34:11;53290.56;;;-146.41;67.04
62995;BME280;49086;52.300;4.850;2022-07-29T02:36:42;53270.63;;;-146.41;67.36
62995;BME280;49086;52.300;4.850;2022-07-29T02:39:11;53284.59;;;-146.41;67.64
62995;BME280;49086;52.300;4.850;2022-07-29T02:41:51;53256.69;;;-146.41;67.75
62995;BME280;49086;52.300;4.850;2022-07-29T02:44:23;53230.78;;;-146.41;67.86
62995;BME280;49086;52.300;4.850;2022-07-29T02:49:48;53254.69;;;-146.41;67.81
62995;BME280;49086;52.300;4.850;2022-07-29T02:52:35;53264.66;;;-146.41;68.19
62995;BME280;49086;52.300;4.850;2022-07-29T02:55:18;53286.59;;;-146.41;68.38
62995;BME280;49086;52.300;4.850;2022-07-29T02:58:13;53268.63;;;-146.41;68.61
62995;BME280;49086;52.300;4.850;2022-07-29T03:00:42;53268.63;;;-146.41;68.81
62995;BME280;49086;52.300;4.850;2022-07-29T03:03:16;53282.59;;;-146.41;68.93
62995;BME280;49086;52.300;4.850;2022-07-29T03:05:43;53266.66;;;-146.41;69.02
62995;BME280;49086;52.300;4.850;2022-07-29T03:08:10;53306.50;;;-146.41;68.93
62995;BME280;49086;52.300;4.850;2022-07-29T03:10:39;53246.72;;;-146.41;68.98
62995;BME280;49086;52.300;4.850;2022-07-29T03:13:10;53290.56;;;-146.41;68.62
62995;BME280;49086;52.300;4.850;2022-07-29T03:15:38;53290.56;;;-146.41;68.74
62995;BME280;49086;52.300;4.850;2022-07-29T03:18:05;53230.78;;;-146.41;68.69
62995;BME280;49086;52.300;4.850;2022-07-29T03:20:34;53276.63;;;-146.41;68.34
62995;BME280;49086;52.300;4.850;2022-07-29T03:23:00;53284.59;;;-146.41;67.77
62995;BME280;49086;52.300;4.850;2022-07-29T03:25:25;53266.66;;;-146.41;67.52
62995;BME280;49086;52.300;4.850;2022-07-29T03:27:53;53288.56;;;-146.41;66.32
62995;BME280;49086;52.300;4.850;2022-07-29T03:30:20;53250.69;;;-146.41;65.32
62995;BME280;49086;52.300;4.850;2022-07-29T03:33:01;53256.69;;;-146.41;64.43
62995;BME280;49086;52.300;4.850;2022-07-29T03:35:30;53240.75;;;-146.41;64.42
62995;BME280;49086;52.300;4.850;2022-07-29T03:37:58;53274.63;;;-146.41;63.98
62995;BME280;49086;52.300;4.850;2022-07-29T03:40:43;53324.47;;;-146.41;64.64
62995;BME280;49086;52.300;4.850;2022-07-29T03:43:16;53258.69;;;-146.41;64.38
62995;BME280;49086;52.300;4.850;2022-07-29T03:45:46;53260.66;;;-146.41;64.48
62995;BME280;49086;52.300;4.850;2022-07-29T03:48:15;53278.59;;;-146.41;64.42
62995;BME280;49086;52.300;4.850;2022-07-29T03:50:46;53242.72;;;-146.41;64.13
62995;BME280;49086;52.300;4.850;2022-07-29T03:53:12;53276.63;;;-146.41;64.52
62995;BME280;49086;52.300;4.850;2022-07-29T03:55:44;53270.63;;;-146.41;64.45
62995;BME280;49086;52.300;4.850;2022-07-29T03:58:14;53300.53;;;-146.41;64.52
62995;BME280;49086;52.300;4.850;2022-07-29T04:00:44;53270.63;;;-146.41;64.85
62995;BME280;49086;52.300;4.850;2022-07-29T04:03:11;53284.59;;;-146.41;64.91
62995;BME280;49086;52.300;4.850;2022-07-29T04:05:44;53282.59;;;-146.41;65.03
62995;BME280;49086;52.300;4.850;2022-07-29T04:08:11;53268.63;;;-146.41;65.21
62995;BME280;49086;52.300;4.850;2022-07-29T04:10:39;53272.63;;;-146.41;65.29
62995;BME280;49086;52.300;4.850;2022-07-29T04:13:06;53264.66;;;-146.41;65.74
62995;BME280;49086;52.300;4.850;2022-07-29T04:15:33;53268.63;;;-146.41;66.15
62995;BME280;49086;52.300;4.850;2022-07-29T04:17:59;53274.63;;;-146.41;66.02
62995;BME280;49086;52.300;4.850;2022-07-29T04:20:25;53270.63;;;-146.41;65.73
62995;BME280;49086;52.300;4.850;2022-07-29T04:22:50;53270.63;;;-146.41;66.15
62995;BME280;49086;52.300;4.850;2022-07-29T04:25:17;53254.69;;;-146.41;65.77
62995;BME280;49086;52.300;4.850;2022-07-29T04:27:43;53278.59;;;-146.41;65.90
62995;BME280;49086;52.300;4.850;2022-07-29T04:30:27;53256.69;;;-146.41;66.03
62995;BME280;49086;52.300;4.850;2022-07-29T04:32:56;53280.59;;;-146.41;66.46
62995;BME280;49086;52.300;4.850;2022-07-29T04:35:22;53272.63;;;-146.41;66.54
62995;BME280;49086;52.300;4.850;2022-07-29T04:37:47;53290.56;;;-146.41;66.63
62995;BME280;49086;52.300;4.850;2022-07-29T04:40:14;53286.59;;;-146.41;67.02
62995;BME280;49086;52.300;4.850;2022-07-29T04:42:44;53256.69;;;-146.41;67.24
62995;BME280;49086;52.300;4.850;2022-07-29T04:45:10;53278.59;;;-146.41;67.16
62995;BME280;49086;52.300;4.850;2022-07-29T04:47:37;53276.63;;;-146.41;67.06
62995;BME280;49086;52.300;4.850;2022-07-29T04:50:06;53254.69;;;-146.41;67.60
62995;BME280;49086;52.300;4.850;2022-07-29T04:52:36;53300.53;;;-146.41;67.57
62995;BME280;49086;52.300;4.850;2022-07-29T04:55:05;53240.75;;;-146.41;67.87
62995;BME280;49086;52.300;4.850;2022-07-29T04:58:01;53284.59;;;-146.41;67.76
62995;BME280;49086;52.300;4.850;2022-07-29T05:00:46;53256.69;;;-146.41;68.09
62995;BME280;49086;52.300;4.850;2022-07-29T05:03:12;53290.56;;;-146.41;68.52
62995;BME280;49086;52.300;4.850;2022-07-29T05:05:37;53258.69;;;-146.41;68.55
62995;BME280;49086;52.300;4.850;2022-07-29T05:08:04;53270.63;;;-146.41;68.80
62995;BME280;49086;52.300;4.850;2022-07-29T05:10:32;53280.59;;;-146.41;68.98
62995;BME280;49086;52.300;4.850;2022-07-29T05:13:00;53286.59;;;-146.41;68.74
62995;BME280;49086;52.300;4.850;2022-07-29T05:15:28;53258.69;;;-146.41;68.82
62995;BME280;49086;52.300;4.850;2022-07-29T05:17:56;53270.63;;;-146.41;69.10
62995;BME280;49086;52.300;4.850;2022-07-29T05:20:23;53288.56;;;-146.41;69.25
62995;BME280;49086;52.300;4.850;2022-07-29T05:22:53;53250.69;;;-146.41;69.07
62995;BME280;49086;52.300;4.850;2022-07-29T05:25:20;53274.63;;;-146.41;69.04
62995;BME280;49086;52.300;4.850;2022-07-29T05:27:50;53282.59;;;-146.41;68.57
62995;BME280;49086;52.300;4.850;2022-07-29T05:30:16;53270.63;;;-146.41;68.75
62995;BME280;49086;52.300;4.850;2022-07-29T05:32:44;53232.75;;;-146.41;68.64
62995;BME280;49086;52.300;4.850;2022-07-29T05:35:11;53264.66;;;-146.41;68.45
62995;BME280;49086;52.300;4.850;2022-07-29T05:37:40;53244.72;;;-146.41;68.46
62995;BME280;49086;52.300;4.850;2022-07-29T05:40:07;53294.56;;;-146.41;68.49
62995;BME280;49086;52.300;4.850;2022-07-29T05:42:34;53270.63;;;-146.41;68.52
62995;BME280;49086;52.300;4.850;2022-07-29T05:45:04;53254.69;;;-146.41;67.90
62995;BME280;49086;52.300;4.850;2022-07-29T05:47:51;53256.69;;;-146.41;67.61
62995;BME280;49086;52.300;4.850;2022-07-29T05:50:19;53286.59;;;-146.41;67.72
62995;BME280;49086;52.300;4.850;2022-07-29T05:52:44;53262.66;;;-146.41;67.56
62995;BME280;49086;52.300;4.850;2022-07-29T05:55:31;53256.69;;;-146.41;67.77
62995;BME280;49086;52.300;4.850;2022-07-29T05:57:58;53254.69;;;-146.41;67.45
62995;BME280;49086;52.300;4.850;2022-07-29T06:00:23;53276.63;;;-146.41;67.24
62995;BME280;49086;52.300;4.850;2022-07-29T06:02:48;53266.66;;;-146.41;67.54
62995;BME280;49086;52.300;4.850;2022-07-29T06:05:15;53262.66;;;-146.41;67.44
62995;BME280;49086;52.300;4.850;2022-07-29T06:07:42;53258.69;;;-146.41;67.39
62995;BME280;49086;52.300;4.850;2022-07-29T06:10:27;53234.75;;;-146.41;67.37
62995;BME280;49086;52.300;4.850;2022-07-29T06:12:55;53272.63;;;-146.41;67.51
62995;BME280;49086;52.300;4.850;2022-07-29T06:15:22;53282.59;;;-146.41;67.20
62995;BME280;49086;52.300;4.850;2022-07-29T06:17:48;53266.66;;;-146.41;67.18
62995;BME280;49086;52.300;4.850;2022-07-29T06:20:15;53278.59;;;-146.41;67.30
62995;BME280;49086;52.300;4.850;2022-07-29T06:22:41;53250.69;;;-146.41;67.27
62995;BME280;49086;52.300;4.850;2022-07-29T06:25:07;53262.66;;;-146.41;67.35
62995;BME280;49086;52.300;4.850;2022-07-29T06:27:32;53252.69;;;-146.41;67.21
62995;BME280;49086;52.300;4.850;2022-07-29T06:29:58;53260.66;;;-146.41;66.64
62995;BME280;49086;52.300;4.850;2022-07-29T06:32:24;53268.63;;;-146.41;66.21
62995;BME280;49086;52.300;4.850;2022-07-29T06:34:51;53250.69;;;-146.41;66.15
62995;BME280;49086;52.300;4.850;2022-07-29T06:37:18;53264.66;;;-146.41;65.65
62995;BME280;49086;52.300;4.850;2022-07-29T06:39:43;53230.78;;;-146.41;65.59
62995;BME280;49086;52.300;4.850;2022-07-29T06:42:09;53222.78;;;-146.41;65.75
62995;BME280;49086;52.300;4.850;2022-07-29T06:44:36;53222.78;;;-146.41;65.96
62995;BME280;49086;52.300;4.850;2022-07-29T06:47:04;53246.72;;;-146.41;66.01
62995;BME280;49086;52.300;4.850;2022-07-29T06:49:33;53266.66;;;-146.41;66.02
62995;BME280;49086;52.300;4.850;2022-07-29T06:51:58;53226.78;;;-146.41;65.45
62995;BME280;49086;52.300;4.850;2022-07-29T06:54:25;53280.59;;;-146.41;65.44
62995;BME280;49086;52.300;4.850;2022-07-29T06:56:50;53278.59;;;-146.41;65.57
62995;BME280;49086;52.300;4.850;2022-07-29T06:59:17;53290.56;;;-146.41;65.71
62995;BME280;49086;52.300;4.850;2022-07-29T07:01:43;53254.69;;;-146.41;65.79
62995;BME280;49086;52.300;4.850;2022-07-29T07:04:10;53248.72;;;-146.41;65.98
62995;BME280;49086;52.300;4.850;2022-07-29T07:06:58;53248.72;;;-146.41;65.92
62995;BME280;49086;52.300;4.850;2022-07-29T07:09:27;53238.75;;;-146.41;65.76
62995;BME280;49086;52.300;4.850;2022-07-29T07:11:53;53276.63;;;-146.41;65.76
62995;BME280;49086;52.300;4.850;2022-07-29T07:14:19;53244.72;;;-146.41;64.78
62995;BME280;49086;52.300;4.850;2022-07-29T07:16:45;53238.75;;;-146.41;64.59
62995;BME280;49086;52.300;4.850;2022-07-29T07:19:13;53242.72;;;-146.41;64.71
62995;BME280;49086;52.300;4.850;2022-07-29T07:21:44;53256.69;;;-146.41;64.64
62995;BME280;49086;52.300;4.850;2022-07-29T07:24:15;53238.75;;;-146.41;64.96
62995;BME280;49086;52.300;4.850;2022-07-29T07:26:41;53246.72;;;-146.41;64.28
62995;BME280;49086;52.300;4.850;2022-07-29T07:29:08;53260.66;;;-146.41;63.89
62995;BME280;49086;52.300;4.850;2022-07-29T07:31:37;53246.72;;;-146.41;63.66
62995;BME280;49086;52.300;4.850;2022-07-29T07:34:04;53230.78;;;-146.41;63.00
62995;BME280;49086;52.300;4.850;2022-07-29T07:36:31;53252.69;;;-146.41;62.94
62995;BME280;49086;52.300;4.850;2022-07-29T07:38:57;53230.78;;;-146.41;62.89
62995;BME280;49086;52.300;4.850;2022-07-29T07:41:25;53216.81;;;-146.41;62.14
62995;BME280;49086;52.300;4.850;2022-07-29T07:43:52;53246.72;;;-146.41;62.09
62995;BME280;49086;52.300;4.850;2022-07-29T07:46:20;53214.81;;;-146.41;61.47
62995;BME280;49086;52.300;4.850;2022-07-29T07:49:07;53232.75;;;-146.41;61.55
62995;BME280;49086;52.300;4.850;2022-07-29T07:51:39;53244.72;;;-146.41;61.31
62995;BME280;49086;52.300;4.850;2022-07-29T07:54:07;53212.84;;;-146.41;61.94
62995;BME280;49086;52.300;4.850;2022-07-29T07:56:49;53196.88;;;-146.41;62.00
62995;BME280;49086;52.300;4.850;2022-07-29T07:59:16;53238.75;;;-146.41;61.91
62995;BME280;49086;52.300;4.850;2022-07-29T08:01:43;53218.81;;;-146.41;61.94
62995;BME280;49086;52.300;4.850;2022-07-29T08:04:09;53186.91;;;-146.41;61.49
62995;BME280;49086;52.300;4.850;2022-07-29T08:29:51;53182.94;;;-146.41;60.64
62995;BME280;49086;52.300;4.850;2022-07-29T08:32:17;53202.88;;;-146.41;60.39
62995;BME280;49086;52.300;4.850;2022-07-29T08:34:44;53218.81;;;-146.41;60.58
62995;BME280;49086;52.300;4.850;2022-07-29T08:37:12;53206.84;;;-146.41;60.60
62995;BME280;49086;52.300;4.850;2022-07-29T08:39:42;53206.84;;;-146.41;60.28
62995;BME280;49086;52.300;4.850;2022-07-29T08:42:12;53194.88;;;-146.41;60.06
62995;BME280;49086;52.300;4.850;2022-07-29T08:44:38;53159.00;;;-146.41;59.70
62995;BME280;49086;52.300;4.850;2022-07-29T08:47:05;53174.97;;;-146.41;58.17
62995;BME280;49086;52.300;4.850;2022-07-29T08:49:33;53155.03;;;-146.41;58.25
62995;BME280;49086;52.300;4.850;2022-07-29T08:52:02;53182.94;;;-146.41;57.45
62995;BME280;49086;52.300;4.850;2022-07-29T08:54:29;53121.13;;;-146.41;56.61
62995;BME280;49086;52.300;4.850;2022-07-29T08:56:57;53151.03;;;-146.41;55.39
62995;BME280;49086;52.300;4.850;2022-07-29T08:59:25;53159.00;;;-146.41;54.71
62995;BME280;49086;52.300;4.850;2022-07-29T09:01:56;53145.06;;;-146.41;53.83
62995;BME280;49086;52.300;4.850;2022-07-29T09:04:27;53155.03;;;-146.41;53.71
62995;BME280;49086;52.300;4.850;2022-07-29T09:06:58;53141.06;;;-146.41;53.75
62995;BME280;49086;52.300;4.850;2022-07-29T09:09:26;53117.16;;;-146.41;53.89
62995;BME280;49086;52.300;4.850;2022-07-29T09:11:56;53119.16;;;-146.41;52.51
62995;BME280;49086;52.300;4.850;2022-07-29T09:14:22;53151.03;;;-146.41;52.43
62995;BME280;49086;52.300;4.850;2022-07-29T09:16:55;53135.09;;;-146.41;52.91
62995;BME280;49086;52.300;4.850;2022-07-29T09:19:22;53141.06;;;-146.41;53.43
62995;BME280;49086;52.300;4.850;2022-07-29T09:21:58;53161.00;;;-146.41;52.57
62995;BME280;49086;52.300;4.850;2022-07-29T09:24:41;53135.09;;;-146.41;52.90
62995;BME280;49086;52.300;4.850;2022-07-29T09:27:19;53119.16;;;-146.41;53.12
62995;BME280;49086;52.300;4.850;2022-07-29T09:30:08;53109.19;;;-146.41;53.35
62995;BME280;49086;52.300;4.850;2022-07-29T09:32:58;53115.16;;;-146.41;53.24
62995;BME280;49086;52.300;4.850;2022-07-29T09:35:27;53107.19;;;-146.41;52.48
62995;BME280;49086;52.300;4.850;2022-07-29T09:37:53;53061.34;;;-146.41;50.03
62995;BME280;49086;52.300;4.850;2022-07-29T09:40:22;53119.16;;;-146.41;49.39
62995;BME280;49086;52.300;4.850;2022-07-29T09:42:51;53125.13;;;-146.41;49.51
62995;BME280;49086;52.300;4.850;2022-07-29T09:45:42;53087.25;;;-146.41;49.82
62995;BME280;49086;52.300;4.850;2022-07-29T09:48:23;53077.28;;;-146.41;49.72
62995;BME280;49086;52.300;4.850;2022-07-29T09:50:52;53081.28;;;-146.41;48.79
62995;BME280;49086;52.300;4.850;2022-07-29T09:53:34;53099.22;;;-146.41;49.23
62995;BME280;49086;52.300;4.850;2022-07-29T09:56:00;53097.22;;;-146.41;50.07
62995;BME280;49086;52.300;4.850;2022-07-29T09:58:26;53109.19;;;-146.41;49.56
62995;BME280;49086;52.300;4.850;2022-07-29T10:00:56;53075.28;;;-146.41;50.39
62995;BME280;49086;52.300;4.850;2022-07-29T10:03:27;53061.34;;;-146.41;49.30
62995;BME280;49086;52.300;4.850;2022-07-29T10:06:09;53069.31;;;-146.41;49.27
62995;BME280;49086;52.300;4.850;2022-07-29T10:08:36;53095.22;;;-146.41;48.74
62995;BME280;49086;52.300;4.850;2022-07-29T10:11:23;53119.16;;;-146.41;49.66
62995;BME280;49086;52.300;4.850;2022-07-29T10:13:49;53039.41;;;-146.41;48.01
62995;BME280;49086;52.300;4.850;2022-07-29T10:16:26;53107.19;;;-146.41;49.33
62995;BME280;49086;52.300;4.850;2022-07-29T10:19:01;53081.28;;;-146.41;48.93
62995;BME280;49086;52.300;4.850;2022-07-29T10:21:34;53071.31;;;-146.41;49.74
62995;BME280;49086;52.300;4.850;2022-07-29T10:24:06;53043.41;;;-146.41;49.59
62995;BME280;49086;52.300;4.850;2022-07-29T10:26:36;53031.44;;;-146.41;46.34
62995;BME280;49086;52.300;4.850;2022-07-29T10:29:05;53073.31;;;-146.41;46.18
62995;BME280;49086;52.300;4.850;2022-07-29T10:31:48;53061.34;;;-146.41;46.37
62995;BME280;49086;52.300;4.850;2022-07-29T10:37:33;53025.47;;;-146.41;43.66
62995;BME280;49086;52.300;4.850;2022-07-29T10:43:17;53049.38;;;-146.41;42.77
62995;BME280;49086;52.300;4.850;2022-07-29T10:45:47;52983.63;;;-146.41;42.23
62995;BME280;49086;52.300;4.850;2022-07-29T10:48:16;53003.53;;;-146.41;41.57
62995;BME280;49086;52.300;4.850;2022-07-29T10:51:03;53009.53;;;-146.41;41.65
62995;BME280;49086;52.300;4.850;2022-07-29T10:53:50;53039.41;;;-146.41;41.55
62995;BME280;49086;52.300;4.850;2022-07-29T10:56:27;53045.41;;;-146.41;41.91
62995;BME280;49086;52.300;4.850;2022-07-29T10:59:23;53033.44;;;-146.41;42.82
62995;BME280;49086;52.300;4.850;2022-07-29T11:01:54;53079.28;;;-146.41;43.29
62995;BME280;49086;52.300;4.850;2022-07-29T11:07:14;52991.59;;;-146.41;43.06
62995;BME280;49086;52.300;4.850;2022-07-29T11:09:43;53003.53;;;-146.41;43.08
62995;BME280;49086;52.300;4.850;2022-07-29T11:15:11;52941.75;;;-146.41;41.28
62995;BME280;49086;52.300;4.850;2022-07-29T11:20:44;52961.69;;;-146.41;40.60
62995;BME280;49086;52.300;4.850;2022-07-29T11:23:40;53027.47;;;-146.41;39.97
62995;BME280;49086;52.300;4.850;2022-07-29T11:26:20;52955.72;;;-146.41;40.68
62995;BME280;49086;52.300;4.850;2022-07-29T11:31:35;52943.75;;;-146.41;40.49
62995;BME280;49086;52.300;4.850;2022-07-29T11:34:23;52947.72;;;-146.41;39.70
62995;BME280;49086;52.300;4.850;2022-07-29T11:44:58;52961.69;;;-146.41;40.21
62995;BME280;49086;52.300;4.850;2022-07-29T11:47:26;53001.56;;;-146.41;40.27
62995;BME280;49086;52.300;4.850;2022-07-29T11:49:53;52929.78;;;-146.41;39.24
62995;BME280;49086;52.300;4.850;2022-07-29T11:52:21;52943.75;;;-146.41;38.96
62995;BME280;49086;52.300;4.850;2022-07-29T11:54:58;52929.78;;;-146.41;38.02
62995;BME280;49086;52.300;4.850;2022-07-29T11:57:28;52943.75;;;-146.41;37.56
62995;BME280;49086;52.300;4.850;2022-07-29T11:59:55;52919.84;;;-146.41;37.52
62995;BME280;49086;52.300;4.850;2022-07-29T12:02:23;52951.72;;;-146.41;36.98
62995;BME280;49086;52.300;4.850;2022-07-29T12:04:55;52959.69;;;-146.41;37.37
62995;BME280;49086;52.300;4.850;2022-07-29T12:07:32;52953.72;;;-146.41;37.44
62995;BME280;49086;52.300;4.850;2022-07-29T12:10:00;52939.75;;;-146.41;37.64
62995;BME280;49086;52.300;4.850;2022-07-29T12:12:27;52943.75;;;-146.41;38.29
62995;BME280;49086;52.300;4.850;2022-07-29T12:14:55;52951.72;;;-146.41;37.96
62995;BME280;49086;52.300;4.850;2022-07-29T12:17:33;52941.75;;;-146.41;38.21
62995;BME280;49086;52.300;4.850;2022-07-29T12:20:05;52915.84;;;-146.41;37.34
62995;BME280;49086;52.300;4.850;2022-07-29T12:22:35;52925.81;;;-146.41;37.52
62995;BME280;49086;52.300;4.850;2022-07-29T12:25:11;52925.81;;;-146.41;36.93
62995;BME280;49086;52.300;4.850;2022-07-29T12:27:44;52903.88;;;-146.41;38.53
62995;BME280;49086;52.300;4.850;2022-07-29T12:30:16;53031.44;;;-146.41;38.54
62995;BME280;49086;52.300;4.850;2022-07-29T12:32:42;52925.81;;;-146.41;39.15
62995;BME280;49086;52.300;4.850;2022-07-29T12:35:19;52877.97;;;-146.41;38.78
62995;BME280;49086;52.300;4.850;2022-07-29T12:37:50;52931.78;;;-146.41;39.27
62995;BME280;49086;52.300;4.850;2022-07-29T12:40:18;52959.69;;;-146.41;39.05
62995;BME280;49086;52.300;4.850;2022-07-29T12:43:09;52953.72;;;-146.41;39.21
62995;BME280;49086;52.300;4.850;2022-07-29T12:45:43;52981.63;;;-146.41;39.02
62995;BME280;49086;52.300;4.850;2022-07-29T12:48:11;52923.81;;;-146.41;38.75
62995;BME280;49086;52.300;4.850;2022-07-29T12:51:01;52915.84;;;-146.41;38.80
62995;BME280;49086;52.300;4.850;2022-07-29T12:53:29;52903.88;;;-146.41;38.47
62995;BME280;49086;52.300;4.850;2022-07-29T12:55:59;52939.75;;;-146.41;38.16
62995;BME280;49086;52.300;4.850;2022-07-29T12:58:43;52883.97;;;-146.41;38.56
62995;BME280;49086;52.300;4.850;2022-07-29T13:01:13;52899.91;;;-146.41;38.38
62995;BME280;49086;52.300;4.850;2022-07-29T13:06:45;52927.81;;;-146.41;37.34
62995;BME280;49086;52.300;4.850;2022-07-29T13:11:44;52925.81;;;-146.41;37.65
62995;BME280;49086;52.300;4.850;2022-07-29T13:14:13;52903.88;;;-146.41;37.49
62995;BME280;49086;52.300;4.850;2022-07-29T13:19:46;52913.84;;;-146.41;37.83
62995;BME280;49086;52.300;4.850;2022-07-29T13:22:21;52915.84;;;-146.41;37.87
62995;BME280;49086;52.300;4.850;2022-07-29T13:24:59;52901.91;;;-146.41;38.01
62995;BME280;49086;52.300;4.850;2022-07-29T13:27:30;52907.88;;;-146.41;37.77
62995;BME280;49086;52.300;4.850;2022-07-29T13:30:03;52903.88;;;-146.41;37.34
62995;BME280;49086;52.300;4.850;2022-07-29T13:32:31;52897.91;;;-146.41;37.95
62995;BME280;49086;52.300;4.850;2022-07-29T13:35:07;52907.88;;;-146.41;37.75
62995;BME280;49086;52.300;4.850;2022-07-29T13:37:35;52899.91;;;-146.41;36.70
62995;BME280;49086;52.300;4.850;2022-07-29T13:40:27;52883.97;;;-146.41;36.61
62995;BME280;49086;52.300;4.850;2022-07-29T13:43:08;52854.06;;;-146.41;37.06
62995;BME280;49086;52.300;4.850;2022-07-29T13:45:33;52875.97;;;-146.41;36.69
62995;BME280;49086;52.300;4.850;2022-07-29T13:48:05;52907.88;;;-146.41;36.20
62995;BME280;49086;52.300;4.850;2022-07-29T13:50:32;52885.94;;;-146.41;36.38
62995;BME280;49086;52.300;4.850;2022-07-29T13:53:00;52913.84;;;-146.41;36.46
62995;BME280;49086;52.300;4.850;2022-07-29T13:55:25;52899.91;;;-146.41;36.70
62995;BME280;49086;52.300;4.850;2022-07-29T13:57:53;52889.94;;;-146.41;34.98
62995;BME280;49086;52.300;4.850;2022-07-29T14:00:20;52929.78;;;-146.41;35.46